Terminal Aerodrome Forecast
Issued by NWS Nashville, TN

Home | Current Version | Previous Version | Text Only | Print | Product List | Glossary On
Versions: 1 2 3 4 5 6 7 8 9 10 11 12 13 14 15 16 17 18 19 20 21 22 23 24 25 26 27 28 29 30 31
000
FTUS44 KOHX 281700 RRA
TAFCSV
TAF
KCSV 281740Z 2818/2918 13003KT P6SM VCTS BKN045CB
      TEMPO 2820/2824 4SM TSRA BR BKN025CB
     FM290200 13003KT P6SM BKN025
     FM290800 00000KT 4SM BR BKN010
     FM291400 18004KT P6SM BKN030
     FM291600 19005KT P6SM VCTS BKN050CB=

USA.gov is the U.S. government's official web portal to all federal, state and local government web resources and services.